sensor_id;sensor_type;location;lat;lon;timestamp;P1;durP1;ratioP1;P2;durP2;ratioP2
79122;SDS011;68526;44.600;26.032;2023-11-18T00:00:14;25.98;;;17.95;;
79122;SDS011;68526;44.600;26.032;2023-11-18T00:00:32;25.70;;;17.80;;
79122;SDS011;68526;44.600;26.032;2023-11-18T00:00:48;26.92;;;17.70;;
79122;SDS011;68526;44.600;26.032;2023-11-18T00:01:05;28.05;;;17.98;;
79122;SDS011;68526;44.600;26.032;2023-11-18T00:01:21;27.80;;;18.00;;
79122;SDS011;68526;44.600;26.032;2023-11-18T00:01:37;27.88;;;18.20;;
79122;SDS011;68526;44.600;26.032;2023-11-18T00:01:53;25.83;;;17.77;;
79122;SDS011;68526;44.600;26.032;2023-11-18T00:02:09;27.07;;;18.53;;
79122;SDS011;68526;44.600;26.032;2023-11-18T00:02:24;29.02;;;18.83;;
79122;SDS011;68526;44.600;26.032;2023-11-18T00:02:40;28.95;;;17.88;;
79122;SDS011;68526;44.600;26.032;2023-11-18T00:02:58;27.58;;;18.38;;
79122;SDS011;68526;44.600;26.032;2023-11-18T00:03:15;25.67;;;18.00;;
79122;SDS011;68526;44.600;26.032;2023-11-18T00:03:30;26.75;;;17.80;;
79122;SDS011;68526;44.600;26.032;2023-11-18T00:03:46;25.42;;;17.42;;
79122;SDS011;68526;44.600;26.032;2023-11-18T00:04:02;24.80;;;17.00;;
79122;SDS011;68526;44.600;26.032;2023-11-18T00:04:18;25.48;;;17.77;;
79122;SDS011;68526;44.600;26.032;2023-11-18T00:04:34;26.17;;;18.02;;
79122;SDS011;68526;44.600;26.032;2023-11-18T00:04:50;27.58;;;18.50;;
79122;SDS011;68526;44.600;26.032;2023-11-18T00:05:06;27.05;;;18.98;;
79122;SDS011;68526;44.600;26.032;2023-11-18T00:05:23;27.55;;;18.85;;
79122;SDS011;68526;44.600;26.032;2023-11-18T00:05:40;30.45;;;18.05;;
79122;SDS011;68526;44.600;26.032;2023-11-18T00:05:56;29.05;;;17.70;;
79122;SDS011;68526;44.600;26.032;2023-11-18T00:06:11;26.07;;;18.10;;
79122;SDS011;68526;44.600;26.032;2023-11-18T00:06:28;25.42;;;18.23;;
79122;SDS011;68526;44.600;26.032;2023-11-18T00:06:43;26.30;;;18.48;;
79122;SDS011;68526;44.600;26.032;2023-11-18T00:07:00;26.20;;;17.92;;
79122;SDS011;68526;44.600;26.032;2023-11-18T00:07:16;25.70;;;17.80;;
79122;SDS011;68526;44.600;26.032;2023-11-18T00:07:32;24.40;;;17.97;;
79122;SDS011;68526;44.600;26.032;2023-11-18T00:07:49;24.08;;;17.52;;
79122;SDS011;68526;44.600;26.032;2023-11-18T00:08:05;24.17;;;16.98;;
79122;SDS011;68526;44.600;26.032;2023-11-18T00:08:21;24.92;;;17.42;;
79122;SDS011;68526;44.600;26.032;2023-11-18T00:08:37;27.58;;;17.98;;
79122;SDS011;68526;44.600;26.032;2023-11-18T00:08:53;27.67;;;18.10;;
79122;SDS011;68526;44.600;26.032;2023-11-18T00:09:09;26.75;;;18.35;;
79122;SDS011;68526;44.600;26.032;2023-11-18T00:09:29;25.75;;;17.50;;
79122;SDS011;68526;44.600;26.032;2023-11-18T00:09:46;27.50;;;18.00;;
79122;SDS011;68526;44.600;26.032;2023-11-18T00:10:02;27.92;;;18.85;;
79122;SDS011;68526;44.600;26.032;2023-11-18T00:10:19;28.73;;;17.95;;
79122;SDS011;68526;44.600;26.032;2023-11-18T00:10:34;27.73;;;17.47;;
79122;SDS011;68526;44.600;26.032;2023-11-18T00:10:50;26.60;;;18.15;;
79122;SDS011;68526;44.600;26.032;2023-11-18T00:11:06;26.45;;;17.95;;
79122;SDS011;68526;44.600;26.032;2023-11-18T00:11:22;25.23;;;17.50;;
79122;SDS011;68526;44.600;26.032;2023-11-18T00:11:39;24.08;;;17.23;;
79122;SDS011;68526;44.600;26.032;2023-11-18T00:11:55;23.80;;;17.10;;
79122;SDS011;68526;44.600;26.032;2023-11-18T00:12:12;23.00;;;17.43;;
79122;SDS011;68526;44.600;26.032;2023-11-18T00:12:29;25.13;;;18.65;;
79122;SDS011;68526;44.600;26.032;2023-11-18T00:12:44;26.40;;;18.58;;
79122;SDS011;68526;44.600;26.032;2023-11-18T00:13:02;26.45;;;18.42;;
79122;SDS011;68526;44.600;26.032;2023-11-18T00:13:19;25.75;;;18.13;;
79122;SDS011;68526;44.600;26.032;2023-11-18T00:13:35;23.70;;;17.38;;
79122;SDS011;68526;44.600;26.032;2023-11-18T00:13:50;23.38;;;16.95;;
79122;SDS011;68526;44.600;26.032;2023-11-18T00:14:07;28.38;;;18.40;;
79122;SDS011;68526;44.600;26.032;2023-11-18T00:14:23;29.63;;;18.77;;
79122;SDS011;68526;44.600;26.032;2023-11-18T00:14:39;27.37;;;18.37;;
79122;SDS011;68526;44.600;26.032;2023-11-18T00:14:55;25.38;;;17.73;;
79122;SDS011;68526;44.600;26.032;2023-11-18T00:15:11;25.23;;;17.98;;
79122;SDS011;68526;44.600;26.032;2023-11-18T00:15:28;26.48;;;17.55;;
79122;SDS011;68526;44.600;26.032;2023-11-18T00:15:43;25.60;;;16.57;;
79122;SDS011;68526;44.600;26.032;2023-11-18T00:16:01;24.90;;;17.40;;
79122;SDS011;68526;44.600;26.032;2023-11-18T00:16:18;26.20;;;17.63;;
79122;SDS011;68526;44.600;26.032;2023-11-18T00:16:34;25.43;;;17.37;;
79122;SDS011;68526;44.600;26.032;2023-11-18T00:16:50;24.40;;;17.60;;
79122;SDS011;68526;44.600;26.032;2023-11-18T00:17:06;24.23;;;17.60;;
79122;SDS011;68526;44.600;26.032;2023-11-18T00:17:21;24.40;;;18.13;;
79122;SDS011;68526;44.600;26.032;2023-11-18T00:17:37;25.58;;;18.13;;
79122;SDS011;68526;44.600;26.032;2023-11-18T00:17:53;25.17;;;17.33;;
79122;SDS011;68526;44.600;26.032;2023-11-18T00:18:10;25.98;;;17.60;;
79122;SDS011;68526;44.600;26.032;2023-11-18T00:18:27;25.98;;;17.63;;
79122;SDS011;68526;44.600;26.032;2023-11-18T00:18:42;24.92;;;17.02;;
79122;SDS011;68526;44.600;26.032;2023-11-18T00:18:59;24.80;;;17.17;;
79122;SDS011;68526;44.600;26.032;2023-11-18T00:19:15;25.13;;;17.85;;
79122;SDS011;68526;44.600;26.032;2023-11-18T00:19:30;25.52;;;17.63;;
79122;SDS011;68526;44.600;26.032;2023-11-18T00:19:46;25.95;;;17.33;;
79122;SDS011;68526;44.600;26.032;2023-11-18T00:20:02;27.02;;;17.65;;
79122;SDS011;68526;44.600;26.032;2023-11-18T00:20:24;25.02;;;17.27;;
79122;SDS011;68526;44.600;26.032;2023-11-18T00:20:40;26.02;;;17.98;;
79122;SDS011;68526;44.600;26.032;2023-11-18T00:20:56;26.83;;;17.60;;
79122;SDS011;68526;44.600;26.032;2023-11-18T00:21:12;28.08;;;17.33;;
79122;SDS011;68526;44.600;26.032;2023-11-18T00:21:28;29.45;;;18.27;;
79122;SDS011;68526;44.600;26.032;2023-11-18T00:21:44;27.55;;;17.98;;
79122;SDS011;68526;44.600;26.032;2023-11-18T00:21:59;25.20;;;16.92;;
79122;SDS011;68526;44.600;26.032;2023-11-18T00:22:15;24.73;;;17.58;;
79122;SDS011;68526;44.600;26.032;2023-11-18T00:22:32;25.73;;;18.40;;
79122;SDS011;68526;44.600;26.032;2023-11-18T00:22:48;25.43;;;17.73;;
79122;SDS011;68526;44.600;26.032;2023-11-18T00:23:04;25.65;;;17.98;;
79122;SDS011;68526;44.600;26.032;2023-11-18T00:23:20;25.65;;;18.30;;
79122;SDS011;68526;44.600;26.032;2023-11-18T00:23:35;25.10;;;17.98;;
79122;SDS011;68526;44.600;26.032;2023-11-18T00:23:51;25.83;;;17.63;;
79122;SDS011;68526;44.600;26.032;2023-11-18T00:24:08;26.05;;;17.52;;
79122;SDS011;68526;44.600;26.032;2023-11-18T00:24:24;25.52;;;17.65;;
79122;SDS011;68526;44.600;26.032;2023-11-18T00:24:42;25.85;;;18.13;;
79122;SDS011;68526;44.600;26.032;2023-11-18T00:24:58;26.63;;;18.25;;
79122;SDS011;68526;44.600;26.032;2023-11-18T00:25:14;26.77;;;18.17;;
79122;SDS011;68526;44.600;26.032;2023-11-18T00:25:30;26.15;;;17.90;;
79122;SDS011;68526;44.600;26.032;2023-11-18T00:25:47;26.33;;;17.65;;
79122;SDS011;68526;44.600;26.032;2023-11-18T00:26:03;26.45;;;17.95;;
79122;SDS011;68526;44.600;26.032;2023-11-18T00:26:21;28.25;;;19.00;;
79122;SDS011;68526;44.600;26.032;2023-11-18T00:26:37;29.70;;;18.67;;
79122;SDS011;68526;44.600;26.032;2023-11-18T00:26:53;27.92;;;18.05;;
79122;SDS011;68526;44.600;26.032;2023-11-18T00:27:10;26.85;;;18.10;;
79122;SDS011;68526;44.600;26.032;2023-11-18T00:27:26;27.42;;;18.58;;
79122;SDS011;68526;44.600;26.032;2023-11-18T00:27:42;27.92;;;18.30;;
79122;SDS011;68526;44.600;26.032;2023-11-18T00:27:58;28.05;;;17.98;;
79122;SDS011;68526;44.600;26.032;2023-11-18T00:28:14;28.70;;;17.55;;
79122;SDS011;68526;44.600;26.032;2023-11-18T00:28:30;27.90;;;17.10;;
79122;SDS011;68526;44.600;26.032;2023-11-18T00:28:47;24.85;;;17.13;;
79122;SDS011;68526;44.600;26.032;2023-11-18T00:29:03;24.80;;;17.73;;
79122;SDS011;68526;44.600;26.032;2023-11-18T00:29:19;26.92;;;18.52;;
79122;SDS011;68526;44.600;26.032;2023-11-18T00:29:35;27.65;;;18.63;;
79122;SDS011;68526;44.600;26.032;2023-11-18T00:29:53;26.23;;;18.33;;
79122;SDS011;68526;44.600;26.032;2023-11-18T00:30:09;26.70;;;18.57;;
79122;SDS011;68526;44.600;26.032;2023-11-18T00:30:26;26.02;;;17.98;;
79122;SDS011;68526;44.600;26.032;2023-11-18T00:30:43;24.77;;;17.73;;
79122;SDS011;68526;44.600;26.032;2023-11-18T00:30:59;25.40;;;17.63;;
79122;SDS011;68526;44.600;26.032;2023-11-18T00:31:14;26.48;;;17.85;;
79122;SDS011;68526;44.600;26.032;2023-11-18T00:31:30;27.67;;;18.70;;
79122;SDS011;68526;44.600;26.032;2023-11-18T00:31:46;26.27;;;18.37;;
79122;SDS011;68526;44.600;26.032;2023-11-18T00:32:02;26.55;;;18.65;;
79122;SDS011;68526;44.600;26.032;2023-11-18T00:32:18;26.95;;;18.65;;
79122;SDS011;68526;44.600;26.032;2023-11-18T00:32:34;25.98;;;18.35;;
79122;SDS011;68526;44.600;26.032;2023-11-18T00:32:51;26.17;;;18.33;;
79122;SDS011;68526;44.600;26.032;2023-11-18T00:33:07;26.70;;;18.42;;
79122;SDS011;68526;44.600;26.032;2023-11-18T00:33:23;27.45;;;18.60;;
79122;SDS011;68526;44.600;26.032;2023-11-18T00:33:39;25.33;;;18.10;;
79122;SDS011;68526;44.600;26.032;2023-11-18T00:33:55;25.67;;;18.50;;
79122;SDS011;68526;44.600;26.032;2023-11-18T00:34:11;28.10;;;19.27;;
79122;SDS011;68526;44.600;26.032;2023-11-18T00:34:27;27.03;;;18.97;;
79122;SDS011;68526;44.600;26.032;2023-11-18T00:34:44;26.55;;;18.15;;
79122;SDS011;68526;44.600;26.032;2023-11-18T00:35:00;27.55;;;18.42;;
79122;SDS011;68526;44.600;26.032;2023-11-18T00:35:16;28.07;;;18.57;;
79122;SDS011;68526;44.600;26.032;2023-11-18T00:35:32;27.83;;;18.70;;
79122;SDS011;68526;44.600;26.032;2023-11-18T00:35:49;27.42;;;18.70;;
79122;SDS011;68526;44.600;26.032;2023-11-18T00:36:06;28.75;;;18.55;;
79122;SDS011;68526;44.600;26.032;2023-11-18T00:36:22;27.25;;;18.77;;
79122;SDS011;68526;44.600;26.032;2023-11-18T00:36:38;25.80;;;18.27;;
79122;SDS011;68526;44.600;26.032;2023-11-18T00:36:54;26.67;;;18.25;;
79122;SDS011;68526;44.600;26.032;2023-11-18T00:37:11;28.40;;;18.83;;
79122;SDS011;68526;44.600;26.032;2023-11-18T00:37:27;27.17;;;18.35;;
79122;SDS011;68526;44.600;26.032;2023-11-18T00:37:42;25.58;;;17.92;;
79122;SDS011;68526;44.600;26.032;2023-11-18T00:37:59;26.20;;;18.50;;
79122;SDS011;68526;44.600;26.032;2023-11-18T00:38:15;26.70;;;18.83;;
79122;SDS011;68526;44.600;26.032;2023-11-18T00:38:31;26.73;;;18.48;;
79122;SDS011;68526;44.600;26.032;2023-11-18T00:38:47;26.13;;;18.20;;
79122;SDS011;68526;44.600;26.032;2023-11-18T00:39:04;25.95;;;17.83;;
79122;SDS011;68526;44.600;26.032;2023-11-18T00:39:20;25.27;;;18.23;;
79122;SDS011;68526;44.600;26.032;2023-11-18T00:39:35;25.90;;;18.98;;
79122;SDS011;68526;44.600;26.032;2023-11-18T00:39:53;27.90;;;19.08;;
79122;SDS011;68526;44.600;26.032;2023-11-18T00:40:09;28.35;;;18.70;;
79122;SDS011;68526;44.600;26.032;2023-11-18T00:40:27;28.33;;;18.77;;
79122;SDS011;68526;44.600;26.032;2023-11-18T00:40:44;26.40;;;18.17;;
79122;SDS011;68526;44.600;26.032;2023-11-18T00:41:00;25.65;;;17.58;;
79122;SDS011;68526;44.600;26.032;2023-11-18T00:41:16;24.70;;;18.23;;
79122;SDS011;68526;44.600;26.032;2023-11-18T00:41:32;24.52;;;18.10;;
79122;SDS011;68526;44.600;26.032;2023-11-18T00:41:48;26.20;;;18.08;;
79122;SDS011;68526;44.600;26.032;2023-11-18T00:42:04;26.25;;;18.23;;
79122;SDS011;68526;44.600;26.032;2023-11-18T00:42:20;25.95;;;18.60;;
79122;SDS011;68526;44.600;26.032;2023-11-18T00:42:37;26.70;;;18.95;;
79122;SDS011;68526;44.600;26.032;2023-11-18T00:42:53;26.38;;;18.95;;
79122;SDS011;68526;44.600;26.032;2023-11-18T00:43:09;24.75;;;18.92;;
79122;SDS011;68526;44.600;26.032;2023-11-18T00:43:25;25.15;;;18.88;;
79122;SDS011;68526;44.600;26.032;2023-11-18T00:43:41;27.42;;;18.77;;
79122;SDS011;68526;44.600;26.032;2023-11-18T00:43:56;27.08;;;18.40;;
79122;SDS011;68526;44.600;26.032;2023-11-18T00:44:13;25.45;;;18.13;;
79122;SDS011;68526;44.600;26.032;2023-11-18T00:44:29;27.13;;;18.23;;
79122;SDS011;68526;44.600;26.032;2023-11-18T00:44:45;27.40;;;18.70;;
79122;SDS011;68526;44.600;26.032;2023-11-18T00:45:02;27.75;;;18.70;;
79122;SDS011;68526;44.600;26.032;2023-11-18T00:45:19;28.13;;;18.55;;
79122;SDS011;68526;44.600;26.032;2023-11-18T00:45:35;29.45;;;19.05;;
79122;SDS011;68526;44.600;26.032;2023-11-18T00:45:51;28.98;;;18.55;;
79122;SDS011;68526;44.600;26.032;2023-11-18T00:46:06;28.23;;;18.95;;
79122;SDS011;68526;44.600;26.032;2023-11-18T00:46:23;27.38;;;18.67;;
79122;SDS011;68526;44.600;26.032;2023-11-18T00:46:39;26.60;;;18.03;;
79122;SDS011;68526;44.600;26.032;2023-11-18T00:46:55;26.90;;;18.55;;
79122;SDS011;68526;44.600;26.032;2023-11-18T00:47:12;25.85;;;18.42;;
79122;SDS011;68526;44.600;26.032;2023-11-18T00:47:28;26.75;;;18.40;;
79122;SDS011;68526;44.600;26.032;2023-11-18T00:47:44;28.23;;;18.75;;
79122;SDS011;68526;44.600;26.032;2023-11-18T00:48:01;28.50;;;19.05;;
79122;SDS011;68526;44.600;26.032;2023-11-18T00:48:17;28.87;;;19.43;;
79122;SDS011;68526;44.600;26.032;2023-11-18T00:48:32;29.67;;;19.42;;
79122;SDS011;68526;44.600;26.032;2023-11-18T00:48:48;29.05;;;19.02;;
79122;SDS011;68526;44.600;26.032;2023-11-18T00:49:05;29.20;;;19.08;;
79122;SDS011;68526;44.600;26.032;2023-11-18T00:49:21;29.33;;;18.63;;
79122;SDS011;68526;44.600;26.032;2023-11-18T00:49:36;29.05;;;18.40;;
79122;SDS011;68526;44.600;26.032;2023-11-18T00:49:52;27.80;;;18.98;;
79122;SDS011;68526;44.600;26.032;2023-11-18T00:50:09;26.65;;;18.90;;
79122;SDS011;68526;44.600;26.032;2023-11-18T00:50:25;25.57;;;17.93;;
79122;SDS011;68526;44.600;26.032;2023-11-18T00:50:42;27.90;;;18.50;;
79122;SDS011;68526;44.600;26.032;2023-11-18T00:50:57;28.42;;;19.33;;
79122;SDS011;68526;44.600;26.032;2023-11-18T00:51:13;26.67;;;18.65;;
79122;SDS011;68526;44.600;26.032;2023-11-18T00:51:29;26.13;;;18.53;;
79122;SDS011;68526;44.600;26.032;2023-11-18T00:51:46;26.05;;;18.83;;
79122;SDS011;68526;44.600;26.032;2023-11-18T00:52:02;27.00;;;18.75;;
79122;SDS011;68526;44.600;26.032;2023-11-18T00:52:18;27.63;;;19.08;;
79122;SDS011;68526;44.600;26.032;2023-11-18T00:52:34;28.33;;;19.00;;
79122;SDS011;68526;44.600;26.032;2023-11-18T00:52:50;27.92;;;18.27;;
79122;SDS011;68526;44.600;26.032;2023-11-18T00:53:06;26.27;;;18.35;;
79122;SDS011;68526;44.600;26.032;2023-11-18T00:53:22;26.20;;;18.30;;
79122;SDS011;68526;44.600;26.032;2023-11-18T00:53:37;26.42;;;18.00;;
79122;SDS011;68526;44.600;26.032;2023-11-18T00:53:54;28.85;;;18.73;;
79122;SDS011;68526;44.600;26.032;2023-11-18T00:54:10;27.65;;;18.65;;
79122;SDS011;68526;44.600;26.032;2023-11-18T00:54:27;26.65;;;18.80;;
79122;SDS011;68526;44.600;26.032;2023-11-18T00:54:43;29.27;;;19.03;;
79122;SDS011;68526;44.600;26.032;2023-11-18T00:55:00;29.25;;;19.35;;
79122;SDS011;68526;44.600;26.032;2023-11-18T00:55:16;27.70;;;19.30;;
79122;SDS011;68526;44.600;26.032;2023-11-18T00:55:33;27.58;;;19.25;;
79122;SDS011;68526;44.600;26.032;2023-11-18T00:55:49;28.38;;;19.60;;
79122;SDS011;68526;44.600;26.032;2023-11-18T00:56:06;28.35;;;18.67;;
79122;SDS011;68526;44.600;26.032;2023-11-18T00:56:25;30.48;;;18.98;;
79122;SDS011;68526;44.600;26.032;2023-11-18T00:56:41;28.83;;;19.17;;
79122;SDS011;68526;44.600;26.032;2023-11-18T00:56:57;27.10;;;19.33;;
79122;SDS011;68526;44.600;26.032;2023-11-18T00:57:13;27.40;;;18.90;;
79122;SDS011;68526;44.600;26.032;2023-11-18T00:57:28;28.67;;;18.93;;
79122;SDS011;68526;44.600;26.032;2023-11-18T00:57:44;29.08;;;18.92;;
79122;SDS011;68526;44.600;26.032;2023-11-18T00:58:00;27.98;;;18.65;;
79122;SDS011;68526;44.600;26.032;2023-11-18T00:58:17;27.58;;;19.05;;
79122;SDS011;68526;44.600;26.032;2023-11-18T00:58:33;27.63;;;19.38;;
79122;SDS011;68526;44.600;26.032;2023-11-18T00:58:51;27.48;;;19.55;;
79122;SDS011;68526;44.600;26.032;2023-11-18T00:59:08;28.65;;;20.27;;
79122;SDS011;68526;44.600;26.032;2023-11-18T00:59:24;29.10;;;20.40;;
79122;SDS011;68526;44.600;26.032;2023-11-18T00:59:41;29.42;;;19.98;;
79122;SDS011;68526;44.600;26.032;2023-11-18T00:59:58;28.77;;;19.25;;
79122;SDS011;68526;44.600;26.032;2023-11-18T01:00:14;30.73;;;19.50;;
79122;SDS011;68526;44.600;26.032;2023-11-18T01:00:34;29.45;;;19.48;;
79122;SDS011;68526;44.600;26.032;2023-11-18T01:00:51;27.10;;;19.05;;
79122;SDS011;68526;44.600;26.032;2023-11-18T01:01:07;26.60;;;18.98;;
79122;SDS011;68526;44.600;26.032;2023-11-18T01:01:23;27.35;;;19.10;;
79122;SDS011;68526;44.600;26.032;2023-11-18T01:01:39;27.77;;;19.65;;
79122;SDS011;68526;44.600;26.032;2023-11-18T01:01:55;26.15;;;18.92;;
79122;SDS011;68526;44.600;26.032;2023-11-18T01:02:12;25.60;;;18.92;;
79122;SDS011;68526;44.600;26.032;2023-11-18T01:02:28;27.65;;;19.77;;
79122;SDS011;68526;44.600;26.032;2023-11-18T01:02:44;27.60;;;19.48;;
79122;SDS011;68526;44.600;26.032;2023-11-18T01:03:02;26.08;;;18.75;;
79122;SDS011;68526;44.600;26.032;2023-11-18T01:03:18;26.90;;;19.02;;
79122;SDS011;68526;44.600;26.032;2023-11-18T01:03:34;27.57;;;19.37;;
79122;SDS011;68526;44.600;26.032;2023-11-18T01:03:50;28.92;;;19.50;;
79122;SDS011;68526;44.600;26.032;2023-11-18T01:04:06;30.08;;;19.38;;
79122;SDS011;68526;44.600;26.032;2023-11-18T01:04:22;29.02;;;19.50;;
79122;SDS011;68526;44.600;26.032;2023-11-18T01:04:38;27.67;;;19.55;;
79122;SDS011;68526;44.600;26.032;2023-11-18T01:04:54;28.45;;;19.35;;
79122;SDS011;68526;44.600;26.032;2023-11-18T01:05:10;28.63;;;19.13;;
79122;SDS011;68526;44.600;26.032;2023-11-18T01:05:26;28.73;;;19.55;;
79122;SDS011;68526;44.600;26.032;2023-11-18T01:05:42;29.30;;;20.05;;
79122;SDS011;68526;44.600;26.032;2023-11-18T01:05:59;28.15;;;19.63;;
79122;SDS011;68526;44.600;26.032;2023-11-18T01:06:16;26.17;;;19.20;;
79122;SDS011;68526;44.600;26.032;2023-11-18T01:06:31;27.80;;;19.97;;
79122;SDS011;68526;44.600;26.032;2023-11-18T01:06:47;29.65;;;20.40;;
79122;SDS011;68526;44.600;26.032;2023-11-18T01:07:03;28.85;;;20.40;;
79122;SDS011;68526;44.600;26.032;2023-11-18T01:07:19;29.02;;;20.85;;
79122;SDS011;68526;44.600;26.032;2023-11-18T01:07:35;29.90;;;20.33;;
79122;SDS011;68526;44.600;26.032;2023-11-18T01:07:52;32.58;;;20.17;;
79122;SDS011;68526;44.600;26.032;2023-11-18T01:08:08;32.00;;;19.55;;
79122;SDS011;68526;44.600;26.032;2023-11-18T01:08:24;28.23;;;19.50;;
79122;SDS011;68526;44.600;26.032;2023-11-18T01:08:40;28.27;;;19.67;;
79122;SDS011;68526;44.600;26.032;2023-11-18T01:08:56;29.38;;;20.10;;
79122;SDS011;68526;44.600;26.032;2023-11-18T01:09:11;28.88;;;20.40;;
79122;SDS011;68526;44.600;26.032;2023-11-18T01:09:27;30.57;;;20.63;;
79122;SDS011;68526;44.600;26.032;2023-11-18T01:09:43;30.02;;;20.83;;
79122;SDS011;68526;44.600;26.032;2023-11-18T01:10:00;30.10;;;20.23;;
79122;SDS011;68526;44.600;26.032;2023-11-18T01:10:19;29.20;;;19.75;;
79122;SDS011;68526;44.600;26.032;2023-11-18T01:10:34;27.97;;;19.80;;
79122;SDS011;68526;44.600;26.032;2023-11-18T01:10:50;28.10;;;20.67;;
79122;SDS011;68526;44.600;26.032;2023-11-18T01:11:06;27.83;;;20.45;;
79122;SDS011;68526;44.600;26.032;2023-11-18T01:11:22;27.75;;;19.83;;
79122;SDS011;68526;44.600;26.032;2023-11-18T01:11:38;27.60;;;19.73;;
79122;SDS011;68526;44.600;26.032;2023-11-18T01:11:54;26.65;;;19.73;;
79122;SDS011;68526;44.600;26.032;2023-11-18T01:12:11;26.77;;;19.30;;
79122;SDS011;68526;44.600;26.032;2023-11-18T01:12:27;28.15;;;19.55;;
79122;SDS011;68526;44.600;26.032;2023-11-18T01:12:43;27.77;;;19.58;;
79122;SDS011;68526;44.600;26.032;2023-11-18T01:13:00;29.23;;;20.08;;
79122;SDS011;68526;44.600;26.032;2023-11-18T01:13:16;29.90;;;20.20;;
79122;SDS011;68526;44.600;26.032;2023-11-18T01:13:32;28.00;;;19.30;;
79122;SDS011;68526;44.600;26.032;2023-11-18T01:13:48;28.17;;;19.40;;
79122;SDS011;68526;44.600;26.032;2023-11-18T01:14:04;29.55;;;19.67;;
79122;SDS011;68526;44.600;26.032;2023-11-18T01:14:21;29.45;;;20.15;;
79122;SDS011;68526;44.600;26.032;2023-11-18T01:14:38;28.77;;;20.40;;
79122;SDS011;68526;44.600;26.032;2023-11-18T01:14:54;28.63;;;20.13;;
79122;SDS011;68526;44.600;26.032;2023-11-18T01:15:10;31.10;;;20.15;;
79122;SDS011;68526;44.600;26.032;2023-11-18T01:15:27;31.02;;;19.75;;
79122;SDS011;68526;44.600;26.032;2023-11-18T01:15:43;27.70;;;19.00;;
79122;SDS011;68526;44.600;26.032;2023-11-18T01:16:00;27.45;;;19.52;;
79122;SDS011;68526;44.600;26.032;2023-11-18T01:16:17;27.40;;;19.75;;
79122;SDS011;68526;44.600;26.032;2023-11-18T01:16:32;28.60;;;19.67;;
79122;SDS011;68526;44.600;26.032;2023-11-18T01:16:49;29.30;;;19.80;;
79122;SDS011;68526;44.600;26.032;2023-11-18T01:17:05;29.40;;;20.13;;
79122;SDS011;68526;44.600;26.032;2023-11-18T01:17:21;28.38;;;19.52;;
79122;SDS011;68526;44.600;26.032;2023-11-18T01:17:39;28.23;;;19.13;;
79122;SDS011;68526;44.600;26.032;2023-11-18T01:17:54;28.63;;;19.20;;
79122;SDS011;68526;44.600;26.032;2023-11-18T01:18:10;26.60;;;19.00;;
79122;SDS011;68526;44.600;26.032;2023-11-18T01:18:26;25.90;;;19.17;;
79122;SDS011;68526;44.600;26.032;2023-11-18T01:18:42;26.73;;;19.27;;
79122;SDS011;68526;44.600;26.032;2023-11-18T01:18:58;28.48;;;19.55;;
79122;SDS011;68526;44.600;26.032;2023-11-18T01:19:14;29.58;;;19.65;;
79122;SDS011;68526;44.600;26.032;2023-11-18T01:19:30;29.63;;;19.75;;
79122;SDS011;68526;44.600;26.032;2023-11-18T01:19:47;30.23;;;20.77;;
79122;SDS011;68526;44.600;26.032;2023-11-18T01:20:03;28.45;;;20.33;;
79122;SDS011;68526;44.600;26.032;2023-11-18T01:20:25;28.00;;;18.75;;
79122;SDS011;68526;44.600;26.032;2023-11-18T01:20:41;27.48;;;19.02;;
79122;SDS011;68526;44.600;26.032;2023-11-18T01:20:57;28.70;;;20.08;;
79122;SDS011;68526;44.600;26.032;2023-11-18T01:21:14;28.83;;;19.92;;
79122;SDS011;68526;44.600;26.032;2023-11-18T01:21:32;27.05;;;19.15;;
79122;SDS011;68526;44.600;26.032;2023-11-18T01:21:49;27.27;;;19.23;;
79122;SDS011;68526;44.600;26.032;2023-11-18T01:22:05;27.50;;;19.48;;
79122;SDS011;68526;44.600;26.032;2023-11-18T01:22:21;26.48;;;19.23;;
79122;SDS011;68526;44.600;26.032;2023-11-18T01:22:36;27.40;;;19.00;;
79122;SDS011;68526;44.600;26.032;2023-11-18T01:22:53;26.77;;;19.58;;
79122;SDS011;68526;44.600;26.032;2023-11-18T01:23:09;27.17;;;19.65;;
79122;SDS011;68526;44.600;26.032;2023-11-18T01:23:24;27.70;;;19.23;;
79122;SDS011;68526;44.600;26.032;2023-11-18T01:23:41;27.83;;;19.17;;
79122;SDS011;68526;44.600;26.032;2023-11-18T01:23:57;28.37;;;19.43;;
79122;SDS011;68526;44.600;26.032;2023-11-18T01:24:13;30.02;;;20.05;;
79122;SDS011;68526;44.600;26.032;2023-11-18T01:24:31;31.00;;;20.40;;
79122;SDS011;68526;44.600;26.032;2023-11-18T01:24:47;29.65;;;19.98;;
79122;SDS011;68526;44.600;26.032;2023-11-18T01:25:05;27.73;;;19.73;;
79122;SDS011;68526;44.600;26.032;2023-11-18T01:25:23;27.70;;;20.35;;
79122;SDS011;68526;44.600;26.032;2023-11-18T01:25:40;28.35;;;20.33;;
79122;SDS011;68526;44.600;26.032;2023-11-18T01:25:56;27.65;;;20.38;;
79122;SDS011;68526;44.600;26.032;2023-11-18T01:26:12;28.80;;;20.05;;
79122;SDS011;68526;44.600;26.032;2023-11-18T01:26:28;30.88;;;20.23;;
79122;SDS011;68526;44.600;26.032;2023-11-18T01:26:44;28.97;;;19.53;;
79122;SDS011;68526;44.600;26.032;2023-11-18T01:27:00;27.73;;;19.33;;
79122;SDS011;68526;44.600;26.032;2023-11-18T01:27:16;28.00;;;19.98;;
79122;SDS011;68526;44.600;26.032;2023-11-18T01:27:34;29.58;;;20.48;;
79122;SDS011;68526;44.600;26.032;2023-11-18T01:27:51;29.52;;;20.52;;
79122;SDS011;68526;44.600;26.032;2023-11-18T01:28:07;29.25;;;20.05;;
79122;SDS011;68526;44.600;26.032;2023-11-18T01:28:23;28.88;;;19.95;;
79122;SDS011;68526;44.600;26.032;2023-11-18T01:28:41;32.13;;;21.13;;
79122;SDS011;68526;44.600;26.032;2023-11-18T01:28:58;32.10;;;21.02;;
79122;SDS011;68526;44.600;26.032;2023-11-18T01:29:14;30.00;;;20.40;;
79122;SDS011;68526;44.600;26.032;2023-11-18T01:29:30;31.30;;;21.23;;
79122;SDS011;68526;44.600;26.032;2023-11-18T01:29:46;32.00;;;21.13;;
79122;SDS011;68526;44.600;26.032;2023-11-18T01:30:03;31.30;;;21.33;;
79122;SDS011;68526;44.600;26.032;2023-11-18T01:30:20;30.60;;;20.90;;
79122;SDS011;68526;44.600;26.032;2023-11-18T01:30:35;28.40;;;19.90;;
79122;SDS011;68526;44.600;26.032;2023-11-18T01:30:51;29.17;;;20.58;;
79122;SDS011;68526;44.600;26.032;2023-11-18T01:31:07;29.10;;;20.83;;
79122;SDS011;68526;44.600;26.032;2023-11-18T01:31:24;30.88;;;21.35;;
79122;SDS011;68526;44.600;26.032;2023-11-18T01:31:40;31.95;;;21.33;;
79122;SDS011;68526;44.600;26.032;2023-11-18T01:31:56;30.00;;;20.42;;
79122;SDS011;68526;44.600;26.032;2023-11-18T01:32:13;29.23;;;20.50;;
79122;SDS011;68526;44.600;26.032;2023-11-18T01:32:29;31.02;;;21.05;;
79122;SDS011;68526;44.600;26.032;2023-11-18T01:32:45;32.25;;;21.58;;
79122;SDS011;68526;44.600;26.032;2023-11-18T01:33:01;32.38;;;21.35;;
79122;SDS011;68526;44.600;26.032;2023-11-18T01:33:17;30.52;;;20.52;;
79122;SDS011;68526;44.600;26.032;2023-11-18T01:33:33;29.45;;;20.27;;
79122;SDS011;68526;44.600;26.032;2023-11-18T01:33:52;30.45;;;20.58;;
79122;SDS011;68526;44.600;26.032;2023-11-18T01:34:11;29.80;;;20.95;;